createdAt,value
2018-07-31T00:00:41.728Z,91.90
2018-07-31T00:03:13.768Z,91.70
2018-07-31T00:05:45.535Z,91.60
2018-07-31T00:08:17.503Z,91.90
2018-07-31T00:10:49.573Z,91.50
2018-07-31T00:13:21.368Z,91.60
2018-07-31T00:15:53.635Z,91.50
2018-07-31T00:18:26.107Z,91.40
2018-07-31T00:24:06.144Z,91.20
2018-07-31T00:26:38.277Z,91.30
2018-07-31T00:29:10.463Z,91.40
2018-07-31T00:31:42.812Z,91.40
2018-07-31T00:34:14.972Z,91.50
2018-07-31T00:36:46.973Z,91.50
2018-07-31T00:39:20.103Z,91.50
2018-07-31T00:41:52.643Z,91.50
2018-07-31T00:44:25.322Z,91.60
2018-07-31T00:46:57.426Z,91.70
2018-07-31T00:49:29.592Z,91.60
2018-07-31T00:52:01.344Z,91.60
2018-07-31T00:54:33.377Z,91.50
2018-07-31T00:57:05.946Z,91.80
2018-07-31T00:59:38.124Z,91.70
2018-07-31T01:02:09.952Z,91.80
2018-07-31T01:04:42.341Z,91.90
2018-07-31T01:07:14.293Z,91.90
2018-07-31T01:09:46.270Z,91.90
2018-07-31T01:12:18.285Z,91.90
2018-07-31T01:14:50.402Z,92.10
2018-07-31T01:17:22.279Z,92.20
2018-07-31T01:19:54.527Z,92.20
2018-07-31T01:22:26.433Z,92.30
2018-07-31T01:24:59.500Z,92.20
2018-07-31T01:27:31.587Z,92.20
2018-07-31T01:30:03.633Z,92.20
2018-07-31T01:32:36.082Z,92.00
2018-07-31T01:35:08.444Z,92.10
2018-07-31T01:37:40.455Z,92.20
2018-07-31T01:40:12.367Z,92.20
2018-07-31T01:42:44.197Z,92.20
2018-07-31T01:47:51.080Z,92.30
2018-07-31T01:50:23.179Z,92.10
2018-07-31T01:52:55.422Z,92.10
2018-07-31T01:55:27.201Z,92.10
2018-07-31T01:57:59.177Z,92.10
2018-07-31T02:00:31.949Z,91.90
2018-07-31T02:03:04.047Z,91.70
2018-07-31T02:08:07.235Z,91.60
2018-07-31T02:10:39.275Z,91.60
2018-07-31T02:13:11.686Z,91.60
2018-07-31T02:15:43.382Z,91.60
2018-07-31T02:18:15.234Z,91.80
2018-07-31T02:20:47.458Z,91.70
2018-07-31T02:23:19.298Z,91.60
2018-07-31T02:25:52.238Z,91.60
2018-07-31T02:30:56.284Z,91.70
2018-07-31T02:33:28.436Z,91.90
2018-07-31T02:36:00.302Z,91.70
2018-07-31T02:38:32.351Z,91.80
2018-07-31T02:41:04.430Z,92.00
2018-07-31T02:43:36.356Z,92.00
2018-07-31T02:46:08.255Z,92.00
2018-07-31T02:48:40.706Z,92.30
2018-07-31T02:51:13.100Z,91.60
2018-07-31T02:53:45.863Z,91.50
2018-07-31T02:56:19.529Z,91.60
2018-07-31T02:58:51.426Z,91.50
2018-07-31T03:01:23.301Z,91.60
2018-07-31T03:06:27.135Z,91.30
2018-07-31T03:08:59.245Z,91.50
2018-07-31T03:11:31.379Z,91.60
2018-07-31T03:14:04.196Z,91.20
2018-07-31T03:16:35.928Z,90.90
2018-07-31T03:19:07.930Z,90.90
2018-07-31T03:21:39.886Z,91.30
2018-07-31T03:24:12.114Z,91.40
2018-07-31T03:26:44.076Z,91.40
2018-07-31T03:29:16.239Z,91.40
2018-07-31T03:31:48.302Z,91.40
2018-07-31T03:34:20.459Z,91.60
2018-07-31T03:36:52.241Z,91.70
2018-07-31T03:39:24.292Z,91.70
2018-07-31T03:41:56.853Z,91.80
2018-07-31T03:44:28.714Z,92.40
2018-07-31T03:47:00.578Z,92.10
2018-07-31T03:49:33.297Z,92.20
2018-07-31T03:52:05.017Z,92.20
2018-07-31T03:54:36.965Z,92.00
2018-07-31T03:57:08.713Z,91.90
2018-07-31T03:59:40.639Z,92.00
2018-07-31T04:02:12.855Z,92.10
2018-07-31T04:04:45.074Z,92.00
2018-07-31T04:07:16.892Z,91.90
2018-07-31T04:09:49.200Z,91.90
2018-07-31T04:14:52.665Z,92.60
2018-07-31T04:17:25.283Z,92.40
2018-07-31T04:19:57.074Z,92.40
2018-07-31T04:22:29.044Z,92.40
2018-07-31T04:25:01.751Z,92.30
2018-07-31T04:27:34.043Z,92.30
2018-07-31T04:30:06.115Z,92.20
2018-07-31T04:32:39.186Z,92.30
2018-07-31T04:35:11.082Z,92.10
2018-07-31T04:37:43.026Z,92.30
2018-07-31T04:40:15.080Z,92.40
2018-07-31T04:42:47.044Z,92.50
2018-07-31T04:45:18.970Z,92.70
2018-07-31T04:47:50.890Z,92.70
2018-07-31T04:50:22.736Z,92.60
2018-07-31T04:52:55.114Z,92.50
2018-07-31T04:55:27.095Z,92.50
2018-07-31T04:57:59.170Z,92.60
2018-07-31T05:00:31.308Z,92.50
2018-07-31T05:03:03.415Z,92.50
2018-07-31T05:05:36.034Z,92.60
2018-07-31T05:08:08.236Z,92.70
2018-07-31T05:10:40.542Z,92.30
2018-07-31T05:15:44.357Z,92.70
2018-07-31T05:18:16.397Z,92.50
2018-07-31T05:20:48.355Z,92.70
2018-07-31T05:23:20.132Z,92.40
2018-07-31T05:28:23.974Z,92.40
2018-07-31T05:30:55.825Z,92.30
2018-07-31T05:33:28.794Z,92.40
2018-07-31T05:36:00.854Z,92.40
2018-07-31T05:38:32.702Z,92.50
2018-07-31T05:41:04.522Z,92.50
2018-07-31T05:43:36.684Z,92.50
2018-07-31T05:46:09.264Z,92.70
2018-07-31T05:48:41.419Z,92.40
2018-07-31T05:51:13.342Z,92.50
2018-07-31T05:53:44.826Z,92.20
2018-07-31T05:56:16.834Z,92.00
2018-07-31T05:58:49.207Z,91.90
2018-07-31T06:01:21.392Z,91.40
2018-07-31T06:03:53.238Z,91.10
2018-07-31T06:06:24.095Z,90.90
2018-07-31T06:08:54.974Z,90.90
2018-07-31T06:11:25.924Z,90.50
2018-07-31T06:13:56.867Z,90.40
2018-07-31T06:16:27.809Z,90.20
2018-07-31T06:18:58.892Z,90.10
2018-07-31T06:21:29.801Z,90.20
2018-07-31T06:24:00.766Z,89.90
2018-07-31T06:26:32.388Z,89.80
2018-07-31T06:29:03.361Z,88.60
2018-07-31T06:31:34.371Z,87.70
2018-07-31T06:34:05.572Z,87.60
2018-07-31T06:36:36.731Z,87.10
2018-07-31T06:39:10.423Z,86.70
2018-07-31T06:41:41.280Z,85.70
2018-07-31T06:44:12.164Z,85.70
2018-07-31T06:46:43.078Z,85.50
2018-07-31T06:49:14.044Z,85.00
2018-07-31T06:54:15.355Z,83.70
2018-07-31T06:56:46.297Z,81.70
2018-07-31T06:59:17.157Z,81.40
2018-07-31T07:01:48.178Z,81.50
2018-07-31T07:04:19.135Z,81.80
2018-07-31T07:06:50.168Z,80.80
2018-07-31T07:09:21.215Z,79.40
2018-07-31T07:11:52.132Z,79.00
2018-07-31T07:14:22.971Z,77.40
2018-07-31T07:16:53.851Z,75.90
2018-07-31T07:19:24.756Z,76.30
2018-07-31T07:21:55.583Z,74.70
2018-07-31T07:24:26.492Z,74.50
2018-07-31T07:26:57.623Z,75.30
2018-07-31T07:29:28.622Z,75.20
2018-07-31T07:31:59.638Z,75.40
2018-07-31T07:34:30.566Z,74.70
2018-07-31T07:37:01.500Z,75.80
2018-07-31T07:39:32.368Z,76.20
2018-07-31T07:42:03.110Z,75.80
2018-07-31T07:44:34.016Z,75.30
2018-07-31T07:47:05.027Z,75.00
2018-07-31T07:52:06.304Z,73.20
2018-07-31T07:54:37.042Z,73.00
2018-07-31T07:57:08.459Z,73.40
2018-07-31T07:59:39.458Z,74.70
2018-07-31T08:02:10.346Z,74.90
2018-07-31T08:04:41.402Z,71.80
2018-07-31T08:07:12.361Z,72.40
2018-07-31T08:09:43.272Z,71.70
2018-07-31T08:12:14.418Z,71.90
2018-07-31T08:14:45.336Z,72.20
2018-07-31T08:17:16.288Z,71.00
2018-07-31T08:19:47.312Z,72.90
2018-07-31T08:22:48.198Z,73.10
2018-07-31T08:25:19.259Z,71.70
2018-07-31T08:27:50.254Z,70.80
2018-07-31T08:30:27.263Z,70.40
2018-07-31T08:32:59.559Z,70.10
2018-07-31T08:35:30.402Z,70.30
2018-07-31T08:38:01.449Z,68.90
2018-07-31T08:40:32.244Z,71.10
2018-07-31T08:43:03.287Z,70.70
2018-07-31T08:45:34.363Z,70.50
2018-07-31T08:48:05.235Z,70.10
2018-07-31T08:53:07.412Z,69.30
2018-07-31T08:55:38.411Z,70.60
2018-07-31T08:58:09.323Z,69.20
2018-07-31T09:00:40.338Z,68.70
2018-07-31T09:03:11.228Z,68.10
2018-07-31T09:05:42.082Z,67.90
2018-07-31T09:08:13.037Z,68.30
2018-07-31T09:10:44.199Z,66.70
2018-07-31T09:13:15.074Z,68.50
2018-07-31T09:15:46.056Z,67.90
2018-07-31T09:20:47.388Z,67.60
2018-07-31T09:23:18.318Z,65.90
2018-07-31T09:25:49.360Z,63.10
2018-07-31T09:28:20.416Z,65.30
2018-07-31T09:30:56.512Z,64.60
2018-07-31T09:33:27.472Z,63.50
2018-07-31T09:35:58.575Z,62.90
2018-07-31T09:38:29.459Z,59.80
2018-07-31T09:41:00.779Z,60.00
2018-07-31T09:43:32.112Z,60.90
2018-07-31T09:46:02.896Z,63.30
2018-07-31T09:48:33.699Z,64.60
2018-07-31T09:51:04.540Z,62.50
2018-07-31T09:53:35.338Z,64.00
2018-07-31T09:56:06.267Z,66.10
2018-07-31T09:58:37.241Z,61.80
2018-07-31T10:01:13.223Z,61.40
2018-07-31T10:03:44.096Z,61.00
2018-07-31T10:06:14.941Z,60.90
2018-07-31T10:08:46.031Z,60.30
2018-07-31T10:11:16.940Z,62.20
2018-07-31T10:13:47.860Z,61.90
2018-07-31T10:16:18.891Z,62.60
2018-07-31T10:18:49.955Z,61.10
2018-07-31T10:21:21.108Z,60.10
2018-07-31T10:23:52.187Z,59.80
2018-07-31T10:31:02.287Z,59.80
2018-07-31T10:33:33.279Z,59.10
2018-07-31T10:36:04.255Z,62.00
2018-07-31T10:38:35.339Z,62.40
2018-07-31T10:41:06.295Z,58.70
2018-07-31T10:43:37.168Z,60.80
2018-07-31T10:46:08.086Z,59.30
2018-07-31T10:48:40.023Z,59.70
2018-07-31T10:51:10.892Z,58.60
2018-07-31T10:53:41.782Z,59.70
2018-07-31T10:56:12.731Z,58.30
2018-07-31T10:58:43.752Z,57.50
2018-07-31T11:01:14.696Z,58.90
2018-07-31T11:03:45.687Z,58.40
2018-07-31T11:06:16.562Z,60.10
2018-07-31T11:08:47.611Z,56.60
2018-07-31T11:11:18.440Z,58.90
2018-07-31T11:13:49.449Z,59.20
2018-07-31T11:16:20.306Z,60.40
2018-07-31T11:18:51.158Z,61.10
2018-07-31T11:21:21.985Z,62.60
2018-07-31T11:23:52.870Z,58.80
2018-07-31T11:26:23.897Z,57.20
2018-07-31T11:28:55.030Z,57.30
2018-07-31T11:31:26.284Z,58.40
2018-07-31T11:33:57.396Z,56.90
2018-07-31T11:36:28.271Z,57.00
2018-07-31T11:38:59.267Z,57.00
2018-07-31T11:41:30.251Z,58.80
2018-07-31T11:44:01.338Z,58.10
2018-07-31T11:46:32.139Z,57.60
2018-07-31T11:49:03.021Z,58.80
2018-07-31T11:51:33.939Z,59.90
2018-07-31T11:54:04.946Z,60.70
2018-07-31T11:56:35.802Z,61.90
2018-07-31T11:59:06.653Z,63.00
2018-07-31T12:01:37.713Z,64.00
2018-07-31T12:04:09.729Z,66.40
2018-07-31T12:06:40.809Z,66.80
2018-07-31T12:09:13.533Z,67.00
2018-07-31T12:11:45.134Z,69.80
2018-07-31T12:14:16.929Z,69.00
2018-07-31T12:16:48.800Z,69.00
2018-07-31T12:19:20.053Z,68.90
2018-07-31T12:21:51.139Z,71.10
2018-07-31T12:24:22.209Z,73.80
2018-07-31T12:26:53.385Z,74.40
2018-07-31T12:29:24.698Z,75.20
2018-07-31T12:31:55.817Z,77.60
2018-07-31T12:34:26.822Z,77.50
2018-07-31T12:36:57.702Z,78.70
2018-07-31T12:39:28.612Z,80.60
2018-07-31T12:41:59.668Z,81.90
2018-07-31T12:44:30.632Z,83.30
2018-07-31T12:47:01.780Z,83.80
2018-07-31T12:49:32.844Z,83.50
2018-07-31T12:52:03.883Z,84.20
2018-07-31T12:54:34.937Z,84.70
2018-07-31T12:57:06.220Z,84.50
2018-07-31T12:59:37.553Z,85.30
2018-07-31T13:02:08.909Z,85.50
2018-07-31T13:04:40.067Z,85.50
2018-07-31T13:07:11.276Z,86.00
2018-07-31T13:09:42.366Z,86.60
2018-07-31T13:12:13.470Z,87.30
2018-07-31T13:14:44.559Z,86.80
2018-07-31T13:17:15.705Z,86.40
2018-07-31T13:19:46.673Z,86.40
2018-07-31T13:22:17.827Z,86.00
2018-07-31T13:24:49.368Z,86.10
2018-07-31T13:27:20.634Z,85.90
2018-07-31T13:29:51.791Z,86.00
2018-07-31T13:32:22.904Z,87.10
2018-07-31T13:37:24.290Z,88.50
2018-07-31T13:42:25.769Z,88.70
2018-07-31T13:44:58.313Z,89.10
2018-07-31T13:47:29.390Z,88.80
2018-07-31T13:50:00.605Z,89.20
2018-07-31T13:52:31.625Z,90.00
2018-07-31T13:55:02.690Z,90.00
2018-07-31T13:57:33.942Z,90.00
2018-07-31T14:00:05.768Z,90.00
2018-07-31T14:02:36.863Z,89.70
2018-07-31T14:05:07.891Z,87.40
2018-07-31T14:07:38.907Z,87.20
2018-07-31T14:10:09.897Z,87.00
2018-07-31T14:12:41.217Z,88.00
2018-07-31T14:17:43.912Z,88.00
2018-07-31T14:20:15.255Z,88.30
2018-07-31T14:22:46.414Z,87.80
2018-07-31T14:25:17.545Z,87.30
2018-07-31T14:27:48.686Z,86.90
2018-07-31T14:30:19.666Z,86.10
2018-07-31T14:32:50.587Z,87.50
2018-07-31T14:35:21.751Z,87.00
2018-07-31T14:37:52.772Z,87.90
2018-07-31T14:40:23.967Z,87.70
2018-07-31T14:42:55.216Z,87.80
2018-07-31T14:45:26.352Z,87.60
2018-07-31T14:47:57.431Z,88.40
2018-07-31T14:50:28.566Z,88.40
2018-07-31T14:52:59.595Z,87.30
2018-07-31T14:55:30.738Z,88.30
2018-07-31T16:48:32.696Z,79.10
2018-07-31T16:51:04.657Z,78.70
2018-07-31T16:56:09.251Z,82.90
2018-07-31T16:58:42.407Z,84.20
2018-07-31T17:01:14.472Z,85.00
2018-07-31T17:03:46.426Z,85.20
2018-07-31T17:06:18.719Z,84.20
2018-07-31T17:08:51.055Z,83.90
2018-07-31T17:11:23.393Z,84.80
2018-07-31T17:13:56.182Z,86.20
2018-07-31T17:16:28.327Z,86.50
2018-07-31T17:19:00.766Z,87.30
2018-07-31T17:21:32.971Z,88.30
2018-07-31T17:24:05.121Z,89.30
2018-07-31T17:26:37.210Z,89.30
2018-07-31T17:29:09.598Z,89.70
2018-07-31T17:34:48.729Z,89.50
2018-07-31T17:37:21.258Z,89.20
2018-07-31T17:39:53.893Z,90.20
2018-07-31T17:42:26.328Z,90.30
2018-07-31T17:44:58.553Z,90.30
2018-07-31T17:47:31.181Z,90.10
2018-07-31T17:50:03.742Z,89.70
2018-07-31T17:52:36.699Z,89.60
2018-07-31T17:55:10.041Z,89.70
2018-07-31T17:57:42.013Z,90.00
2018-07-31T18:02:48.212Z,90.20
2018-07-31T18:05:20.742Z,90.60
2018-07-31T18:07:53.981Z,90.80
2018-07-31T18:10:26.469Z,91.00
2018-07-31T18:12:59.369Z,91.20
2018-07-31T18:15:32.587Z,91.20
2018-07-31T18:18:05.529Z,91.00
2018-07-31T18:20:38.121Z,91.00
2018-07-31T18:23:10.675Z,91.10
2018-07-31T18:25:43.760Z,91.10
2018-07-31T18:28:16.749Z,91.00
2018-07-31T18:30:50.015Z,91.00
2018-07-31T18:33:25.852Z,91.10
2018-07-31T18:36:00.904Z,91.20
2018-07-31T18:38:36.449Z,91.30
2018-07-31T18:41:14.834Z,91.50
2018-07-31T18:43:47.851Z,91.70
2018-07-31T18:46:22.239Z,91.70
2018-07-31T18:48:55.439Z,91.70
2018-07-31T18:51:28.684Z,91.20
2018-07-31T18:54:02.949Z,91.10
2018-07-31T18:56:36.449Z,91.30
2018-07-31T18:59:10.939Z,91.20
2018-07-31T19:01:45.675Z,91.30
2018-07-31T19:04:22.885Z,91.40
2018-07-31T19:06:56.204Z,91.30
2018-07-31T19:09:30.440Z,91.30
2018-07-31T19:12:05.929Z,91.40
2018-07-31T19:17:14.408Z,91.60
2018-07-31T19:19:49.747Z,91.40
2018-07-31T19:22:23.809Z,91.10
2018-07-31T19:24:57.818Z,91.00
2018-07-31T19:27:30.945Z,91.10
2018-07-31T19:30:04.445Z,91.20
2018-07-31T19:32:38.339Z,91.40
2018-07-31T19:35:11.951Z,91.70
2018-07-31T19:37:47.682Z,91.90
2018-07-31T19:42:57.575Z,91.90
2018-07-31T19:45:31.849Z,91.80
2018-07-31T19:48:04.692Z,91.90
2018-07-31T19:50:37.629Z,91.80
2018-07-31T19:53:10.650Z,91.70
2018-07-31T19:55:45.285Z,91.60
2018-07-31T19:58:22.804Z,91.70
2018-07-31T20:00:59.320Z,91.40
2018-07-31T20:06:10.938Z,91.60
2018-07-31T20:08:55.681Z,91.60
2018-07-31T20:11:30.348Z,91.70
2018-07-31T20:14:05.728Z,91.60
2018-07-31T20:19:17.865Z,92.00
2018-07-31T20:21:54.042Z,91.50
2018-07-31T20:24:30.253Z,91.60
2018-07-31T20:27:05.031Z,91.60
2018-07-31T20:29:39.628Z,91.50
2018-07-31T20:37:22.797Z,91.70
2018-07-31T20:39:58.850Z,91.80
2018-07-31T20:42:37.464Z,91.90
2018-07-31T20:45:17.278Z,91.80
2018-07-31T20:47:54.761Z,91.90
2018-07-31T20:50:29.387Z,91.80
2018-07-31T20:53:03.972Z,91.70
2018-07-31T20:55:37.625Z,91.70
2018-07-31T20:58:11.846Z,91.80
2018-07-31T21:00:45.079Z,91.80
2018-07-31T21:03:21.859Z,91.80
2018-07-31T21:08:28.448Z,91.80
2018-07-31T21:11:06.619Z,91.70
2018-07-31T21:13:42.490Z,91.60
2018-07-31T21:16:16.057Z,91.30
2018-07-31T21:23:57.093Z,91.40
2018-07-31T21:26:30.694Z,91.60
2018-07-31T21:29:05.075Z,91.80
2018-07-31T21:31:40.494Z,92.10
2018-07-31T21:34:14.927Z,92.40
2018-07-31T21:36:51.599Z,92.70
2018-07-31T21:39:25.389Z,92.40
2018-07-31T21:42:00.602Z,92.20
2018-07-31T21:44:34.012Z,92.10
2018-07-31T21:47:07.966Z,92.20
2018-07-31T21:49:42.832Z,92.20
2018-07-31T21:52:17.250Z,92.10
2018-07-31T21:54:53.892Z,91.80
2018-07-31T21:57:28.262Z,91.80
2018-07-31T22:00:05.740Z,91.70
2018-07-31T22:02:39.077Z,91.90
2018-07-31T22:05:12.524Z,92.20
2018-07-31T22:07:45.379Z,92.40
2018-07-31T22:10:20.896Z,92.40
2018-07-31T22:12:54.789Z,92.30
2018-07-31T22:15:27.908Z,92.30
2018-07-31T22:18:01.711Z,92.30
2018-07-31T22:20:34.786Z,92.40
2018-07-31T22:23:08.217Z,92.40
2018-07-31T22:25:41.769Z,92.70
2018-07-31T22:28:15.179Z,92.40
2018-07-31T22:30:48.027Z,92.40
2018-07-31T22:33:21.092Z,92.00
2018-07-31T22:35:53.963Z,92.50
2018-07-31T22:38:27.113Z,92.60
2018-07-31T22:40:59.636Z,92.70
2018-07-31T22:43:32.879Z,92.60
2018-07-31T22:46:06.566Z,92.40
2018-07-31T22:48:39.622Z,92.30
2018-07-31T22:51:13.388Z,92.40
2018-07-31T22:53:45.867Z,92.60
2018-07-31T22:56:19.291Z,92.50
2018-07-31T22:58:54.736Z,92.40
2018-07-31T23:01:27.975Z,92.30
2018-07-31T23:04:03.184Z,92.20
2018-07-31T23:06:36.730Z,92.40
2018-07-31T23:09:13.659Z,92.40
2018-07-31T23:11:46.578Z,92.40
2018-07-31T23:14:20.806Z,92.40
2018-07-31T23:16:55.155Z,92.40
2018-07-31T23:19:29.103Z,92.20
2018-07-31T23:22:02.445Z,92.30
2018-07-31T23:24:35.533Z,92.20
2018-07-31T23:29:41.194Z,91.90
2018-07-31T23:32:15.002Z,92.20
2018-07-31T23:34:48.337Z,92.10
2018-07-31T23:37:21.624Z,92.00
2018-07-31T23:39:54.722Z,92.20
2018-07-31T23:42:27.514Z,92.40
2018-07-31T23:45:00.817Z,92.40
2018-07-31T23:47:35.297Z,92.50
2018-07-31T23:50:08.630Z,92.60
2018-07-31T23:52:41.682Z,92.40
2018-07-31T23:55:14.703Z,92.20
2018-07-31T23:57:54.210Z,92.30
